sensor_id;sensor_type;location;lat;lon;timestamp;pressure;altitude;pressure_sealevel;temperature;humidity
62150;BME280;48134;53.586;10.610;2024-02-16T00:00:43;100616.09;;;9.29;100.00
62150;BME280;48134;53.586;10.610;2024-02-16T00:03:18;100615.84;;;9.21;100.00
62150;BME280;48134;53.586;10.610;2024-02-16T00:05:46;100618.56;;;9.21;100.00
62150;BME280;48134;53.586;10.610;2024-02-16T00:08:20;100616.41;;;9.23;100.00
62150;BME280;48134;53.586;10.610;2024-02-16T00:10:55;100621.03;;;9.17;100.00
62150;BME280;48134;53.586;10.610;2024-02-16T00:13:23;100616.13;;;9.14;100.00
62150;BME280;48134;53.586;10.610;2024-02-16T00:15:56;100620.19;;;9.11;100.00
62150;BME280;48134;53.586;10.610;2024-02-16T00:18:25;100614.75;;;9.16;100.00
62150;BME280;48134;53.586;10.610;2024-02-16T00:20:58;100616.94;;;9.14;100.00
62150;BME280;48134;53.586;10.610;2024-02-16T00:23:26;100607.69;;;9.21;100.00
62150;BME280;48134;53.586;10.610;2024-02-16T00:26:02;100608.78;;;9.09;100.00
62150;BME280;48134;53.586;10.610;2024-02-16T00:28:39;100613.94;;;9.06;100.00
62150;BME280;48134;53.586;10.610;2024-02-16T00:31:13;100605.53;;;8.97;100.00
62150;BME280;48134;53.586;10.610;2024-02-16T00:33:42;100602.81;;;9.02;100.00
62150;BME280;48134;53.586;10.610;2024-02-16T00:36:15;100599.56;;;9.00;100.00
62150;BME280;48134;53.586;10.610;2024-02-16T00:38:43;100597.13;;;9.09;100.00
62150;BME280;48134;53.586;10.610;2024-02-16T00:41:22;100596.31;;;8.98;100.00
62150;BME280;48134;53.586;10.610;2024-02-16T00:43:55;100584.63;;;9.02;100.00
62150;BME280;48134;53.586;10.610;2024-02-16T00:46:29;100577.84;;;9.05;100.00
62150;BME280;48134;53.586;10.610;2024-02-16T00:48:58;100577.84;;;8.95;100.00
62150;BME280;48134;53.586;10.610;2024-02-16T00:51:32;100571.59;;;8.94;100.00
62150;BME280;48134;53.586;10.610;2024-02-16T00:54:00;100570.25;;;8.92;100.00
62150;BME280;48134;53.586;10.610;2024-02-16T00:56:35;100555.59;;;8.93;100.00
62150;BME280;48134;53.586;10.610;2024-02-16T00:59:08;100565.63;;;8.97;100.00
62150;BME280;48134;53.586;10.610;2024-02-16T01:01:41;100564.00;;;8.91;100.00
62150;BME280;48134;53.586;10.610;2024-02-16T01:04:10;100565.91;;;8.96;100.00
62150;BME280;48134;53.586;10.610;2024-02-16T01:06:43;100552.34;;;9.06;100.00
62150;BME280;48134;53.586;10.610;2024-02-16T01:09:16;100556.13;;;9.05;100.00
62150;BME280;48134;53.586;10.610;2024-02-16T01:11:45;100545.00;;;9.07;100.00
62150;BME280;48134;53.586;10.610;2024-02-16T01:14:19;100546.91;;;9.06;100.00
62150;BME280;48134;53.586;10.610;2024-02-16T01:16:52;100539.56;;;9.07;100.00
62150;BME280;48134;53.586;10.610;2024-02-16T01:19:25;100536.84;;;9.12;100.00
62150;BME280;48134;53.586;10.610;2024-02-16T01:21:58;100530.63;;;9.06;100.00
62150;BME280;48134;53.586;10.610;2024-02-16T01:24:32;100525.44;;;9.10;100.00
62150;BME280;48134;53.586;10.610;2024-02-16T01:27:02;100528.97;;;9.00;100.00
62150;BME280;48134;53.586;10.610;2024-02-16T01:29:30;100529.53;;;9.02;100.00
62150;BME280;48134;53.586;10.610;2024-02-16T01:32:04;100530.88;;;8.94;100.00
62150;BME280;48134;53.586;10.610;2024-02-16T01:34:37;100531.72;;;8.90;100.00
62150;BME280;48134;53.586;10.610;2024-02-16T01:37:11;100521.94;;;8.83;100.00
62150;BME280;48134;53.586;10.610;2024-02-16T01:39:45;100518.13;;;8.84;100.00
62150;BME280;48134;53.586;10.610;2024-02-16T01:42:19;100523.28;;;8.86;100.00
62150;BME280;48134;53.586;10.610;2024-02-16T01:44:53;100517.34;;;8.79;100.00
62150;BME280;48134;53.586;10.610;2024-02-16T01:47:26;100511.09;;;8.78;100.00
62150;BME280;48134;53.586;10.610;2024-02-16T01:49:59;100523.84;;;8.83;100.00
62150;BME280;48134;53.586;10.610;2024-02-16T01:52:33;100523.84;;;8.83;100.00
62150;BME280;48134;53.586;10.610;2024-02-16T01:55:08;100523.59;;;8.74;100.00
62150;BME280;48134;53.586;10.610;2024-02-16T01:57:45;100526.81;;;8.76;100.00
62150;BME280;48134;53.586;10.610;2024-02-16T02:00:14;100523.56;;;8.79;100.00
62150;BME280;48134;53.586;10.610;2024-02-16T02:02:49;100530.34;;;8.77;100.00
62150;BME280;48134;53.586;10.610;2024-02-16T02:05:23;100534.69;;;8.78;100.00
62150;BME280;48134;53.586;10.610;2024-02-16T02:07:51;100531.19;;;8.77;100.00
62150;BME280;48134;53.586;10.610;2024-02-16T02:10:24;100529.00;;;8.74;100.00
62150;BME280;48134;53.586;10.610;2024-02-16T02:12:59;100525.75;;;8.72;100.00
62150;BME280;48134;53.586;10.610;2024-02-16T02:15:33;100513.28;;;8.66;100.00
62150;BME280;48134;53.586;10.610;2024-02-16T02:18:01;100509.72;;;8.65;100.00
62150;BME280;48134;53.586;10.610;2024-02-16T02:20:35;100505.38;;;8.64;100.00
62150;BME280;48134;53.586;10.610;2024-02-16T02:23:09;100505.13;;;8.56;100.00
62150;BME280;48134;53.586;10.610;2024-02-16T02:25:42;100509.47;;;8.62;100.00
62150;BME280;48134;53.586;10.610;2024-02-16T02:28:16;100505.13;;;8.66;100.00
62150;BME280;48134;53.586;10.610;2024-02-16T02:30:45;100498.06;;;8.60;100.00
62150;BME280;48134;53.586;10.610;2024-02-16T02:33:19;100499.97;;;8.59;100.00
62150;BME280;48134;53.586;10.610;2024-02-16T02:35:52;100489.69;;;8.56;100.00
62150;BME280;48134;53.586;10.610;2024-02-16T02:38:27;100482.34;;;8.57;100.00
62150;BME280;48134;53.586;10.610;2024-02-16T02:40:55;100474.75;;;8.54;100.00
62150;BME280;48134;53.586;10.610;2024-02-16T02:43:28;100475.28;;;8.56;100.00
62150;BME280;48134;53.586;10.610;2024-02-16T02:46:01;100468.50;;;8.53;100.00
62150;BME280;48134;53.586;10.610;2024-02-16T02:48:35;100464.72;;;8.59;100.00
62150;BME280;48134;53.586;10.610;2024-02-16T02:51:03;100466.31;;;8.60;100.00
62150;BME280;48134;53.586;10.610;2024-02-16T02:53:33;100468.78;;;8.57;100.00
62150;BME280;48134;53.586;10.610;2024-02-16T02:56:06;100458.72;;;8.57;100.00
62150;BME280;48134;53.586;10.610;2024-02-16T02:58:39;100461.16;;;8.59;100.00
62150;BME280;48134;53.586;10.610;2024-02-16T03:01:13;100462.53;;;8.61;100.00
62150;BME280;48134;53.586;10.610;2024-02-16T03:03:41;100459.00;;;8.56;100.00
62150;BME280;48134;53.586;10.610;2024-02-16T03:06:17;100450.59;;;8.57;100.00
62150;BME280;48134;53.586;10.610;2024-02-16T03:08:52;100444.63;;;8.55;100.00
62150;BME280;48134;53.586;10.610;2024-02-16T03:11:20;100443.00;;;8.54;100.00
62150;BME280;48134;53.586;10.610;2024-02-16T03:13:53;100437.88;;;8.58;100.00
62150;BME280;48134;53.586;10.610;2024-02-16T03:16:21;100439.22;;;8.55;100.00
62150;BME280;48134;53.586;10.610;2024-02-16T03:18:55;100441.38;;;8.53;100.00
62150;BME280;48134;53.586;10.610;2024-02-16T03:21:28;100443.28;;;8.53;100.00
62150;BME280;48134;53.586;10.610;2024-02-16T03:24:03;100437.31;;;8.45;100.00
62150;BME280;48134;53.586;10.610;2024-02-16T03:26:31;100437.56;;;8.49;100.00
62150;BME280;48134;53.586;10.610;2024-02-16T03:29:05;100444.09;;;8.48;100.00
62150;BME280;48134;53.586;10.610;2024-02-16T03:31:38;100438.38;;;8.44;100.00
62150;BME280;48134;53.586;10.610;2024-02-16T03:34:12;100435.94;;;8.43;100.00
62150;BME280;48134;53.586;10.610;2024-02-16T03:36:45;100437.00;;;8.42;100.00
62150;BME280;48134;53.586;10.610;2024-02-16T03:39:20;100436.72;;;8.38;100.00
62150;BME280;48134;53.586;10.610;2024-02-16T03:41:54;100426.16;;;8.37;100.00
62150;BME280;48134;53.586;10.610;2024-02-16T03:44:27;100423.72;;;8.35;100.00
62150;BME280;48134;53.586;10.610;2024-02-16T03:47:00;100422.09;;;8.39;100.00
62150;BME280;48134;53.586;10.610;2024-02-16T03:49:34;100410.72;;;8.37;100.00
62150;BME280;48134;53.586;10.610;2024-02-16T03:52:07;100407.97;;;8.42;100.00
62150;BME280;48134;53.586;10.610;2024-02-16T03:54:42;100402.31;;;8.39;100.00
62150;BME280;48134;53.586;10.610;2024-02-16T03:57:10;100401.47;;;8.38;100.00
62150;BME280;48134;53.586;10.610;2024-02-16T03:59:39;100396.88;;;8.39;100.00
62150;BME280;48134;53.586;10.610;2024-02-16T04:02:12;100397.97;;;8.38;100.00
62150;BME280;48134;53.586;10.610;2024-02-16T04:04:41;100394.97;;;8.34;100.00
62150;BME280;48134;53.586;10.610;2024-02-16T04:07:15;100393.88;;;8.35;100.00
62150;BME280;48134;53.586;10.610;2024-02-16T04:09:45;100387.16;;;8.48;100.00
62150;BME280;48134;53.586;10.610;2024-02-16T04:12:19;100395.81;;;8.40;100.00
62150;BME280;48134;53.586;10.610;2024-02-16T04:14:47;100391.19;;;8.40;100.00
62150;BME280;48134;53.586;10.610;2024-02-16T04:17:20;100392.00;;;8.41;100.00
62150;BME280;48134;53.586;10.610;2024-02-16T04:19:53;100386.84;;;8.39;100.00
62150;BME280;48134;53.586;10.610;2024-02-16T04:22:27;100379.53;;;8.45;100.00
62150;BME280;48134;53.586;10.610;2024-02-16T04:25:01;100385.22;;;8.43;100.00
62150;BME280;48134;53.586;10.610;2024-02-16T04:27:31;100394.97;;;8.44;100.00
62150;BME280;48134;53.586;10.610;2024-02-16T04:30:05;100398.75;;;8.38;100.00
62150;BME280;48134;53.586;10.610;2024-02-16T04:32:33;100401.22;;;8.45;100.00
62150;BME280;48134;53.586;10.610;2024-02-16T04:35:07;100403.38;;;8.38;100.00
62150;BME280;48134;53.586;10.610;2024-02-16T04:37:38;100389.88;;;8.48;100.00
62150;BME280;48134;53.586;10.610;2024-02-16T04:40:14;100400.69;;;8.38;100.00
62150;BME280;48134;53.586;10.610;2024-02-16T04:42:47;100400.16;;;8.36;100.00
62150;BME280;48134;53.586;10.610;2024-02-16T04:45:21;100392.53;;;8.38;100.00
62150;BME280;48134;53.586;10.610;2024-02-16T04:47:54;100386.03;;;8.33;100.00
62150;BME280;48134;53.586;10.610;2024-02-16T04:50:27;100386.84;;;8.29;100.00
62150;BME280;48134;53.586;10.610;2024-02-16T04:53:01;100394.72;;;8.30;100.00
62150;BME280;48134;53.586;10.610;2024-02-16T04:55:36;100396.34;;;8.26;100.00
62150;BME280;48134;53.586;10.610;2024-02-16T04:58:09;100381.44;;;8.29;100.00
62150;BME280;48134;53.586;10.610;2024-02-16T05:00:42;100392.56;;;8.27;100.00
62150;BME280;48134;53.586;10.610;2024-02-16T05:03:18;100389.81;;;8.32;100.00
62150;BME280;48134;53.586;10.610;2024-02-16T05:05:52;100385.22;;;8.33;100.00
62150;BME280;48134;53.586;10.610;2024-02-16T05:08:25;100389.53;;;8.34;100.00
62150;BME280;48134;53.586;10.610;2024-02-16T05:11:01;100387.09;;;8.32;100.00
62150;BME280;48134;53.586;10.610;2024-02-16T05:13:35;100384.97;;;8.34;100.00
62150;BME280;48134;53.586;10.610;2024-02-16T05:16:08;100388.47;;;8.30;100.00
62150;BME280;48134;53.586;10.610;2024-02-16T05:18:36;100391.72;;;8.27;100.00
62150;BME280;48134;53.586;10.610;2024-02-16T05:21:04;100387.38;;;8.31;100.00
62150;BME280;48134;53.586;10.610;2024-02-16T05:23:37;100377.38;;;8.26;100.00
62150;BME280;48134;53.586;10.610;2024-02-16T05:26:12;100377.91;;;8.23;100.00
62150;BME280;48134;53.586;10.610;2024-02-16T05:28:45;100381.16;;;8.30;100.00
62150;BME280;48134;53.586;10.610;2024-02-16T05:31:19;100382.50;;;8.23;100.00
62150;BME280;48134;53.586;10.610;2024-02-16T05:33:52;100383.84;;;8.20;100.00
62150;BME280;48134;53.586;10.610;2024-02-16T05:36:26;100389.03;;;8.22;100.00
62150;BME280;48134;53.586;10.610;2024-02-16T05:39:02;100380.06;;;8.21;100.00
62150;BME280;48134;53.586;10.610;2024-02-16T05:41:53;100373.84;;;8.21;100.00
62150;BME280;48134;53.586;10.610;2024-02-16T05:44:26;100369.50;;;8.25;100.00
62150;BME280;48134;53.586;10.610;2024-02-16T05:46:54;100372.50;;;8.23;100.00
62150;BME280;48134;53.586;10.610;2024-02-16T05:49:27;100369.78;;;8.23;100.00
62150;BME280;48134;53.586;10.610;2024-02-16T05:51:57;100364.88;;;8.25;100.00
62150;BME280;48134;53.586;10.610;2024-02-16T05:54:43;100373.00;;;8.20;100.00
62150;BME280;48134;53.586;10.610;2024-02-16T05:57:17;100373.31;;;8.29;100.00
62150;BME280;48134;53.586;10.610;2024-02-16T05:59:50;100379.53;;;8.19;100.00
62150;BME280;48134;53.586;10.610;2024-02-16T06:02:24;100377.91;;;8.23;100.00
62150;BME280;48134;53.586;10.610;2024-02-16T06:04:53;100368.69;;;8.29;100.00
62150;BME280;48134;53.586;10.610;2024-02-16T06:07:26;100370.03;;;8.27;100.00
62150;BME280;48134;53.586;10.610;2024-02-16T06:09:59;100366.25;;;8.28;100.00
62150;BME280;48134;53.586;10.610;2024-02-16T06:12:32;100362.44;;;8.24;100.00
62150;BME280;48134;53.586;10.610;2024-02-16T06:15:06;100363.25;;;8.24;100.00
62150;BME280;48134;53.586;10.610;2024-02-16T06:17:39;100364.88;;;8.25;100.00
62150;BME280;48134;53.586;10.610;2024-02-16T06:20:08;100362.72;;;8.22;100.00
62150;BME280;48134;53.586;10.610;2024-02-16T06:22:38;100364.09;;;8.20;100.00
62150;BME280;48134;53.586;10.610;2024-02-16T06:25:11;100365.72;;;8.21;100.00
62150;BME280;48134;53.586;10.610;2024-02-16T06:27:41;100363.81;;;8.26;100.00
62150;BME280;48134;53.586;10.610;2024-02-16T06:30:14;100370.31;;;8.20;100.00
62150;BME280;48134;53.586;10.610;2024-02-16T06:32:47;100372.50;;;8.23;100.00
62150;BME280;48134;53.586;10.610;2024-02-16T06:35:15;100379.78;;;8.23;100.00
62150;BME280;48134;53.586;10.610;2024-02-16T06:37:44;100382.78;;;8.31;100.00
62150;BME280;48134;53.586;10.610;2024-02-16T06:40:12;100384.94;;;8.24;100.00
62150;BME280;48134;53.586;10.610;2024-02-16T06:42:47;100379.81;;;8.12;100.00
62150;BME280;48134;53.586;10.610;2024-02-16T06:45:15;100375.75;;;8.15;100.00
62150;BME280;48134;53.586;10.610;2024-02-16T06:47:49;100378.19;;;8.22;100.00
62150;BME280;48134;53.586;10.610;2024-02-16T06:50:17;100386.84;;;8.24;100.00
62150;BME280;48134;53.586;10.610;2024-02-16T06:52:45;100384.69;;;8.21;100.00
62150;BME280;48134;53.586;10.610;2024-02-16T06:55:18;100383.34;;;8.18;100.00
62150;BME280;48134;53.586;10.610;2024-02-16T06:57:48;100371.94;;;8.11;100.00
62150;BME280;48134;53.586;10.610;2024-02-16T07:00:17;100373.31;;;8.13;100.00
62150;BME280;48134;53.586;10.610;2024-02-16T07:02:51;100377.09;;;8.12;100.00
62150;BME280;48134;53.586;10.610;2024-02-16T07:05:25;100379.53;;;8.19;100.00
62150;BME280;48134;53.586;10.610;2024-02-16T07:07:59;100376.84;;;8.19;100.00
62150;BME280;48134;53.586;10.610;2024-02-16T07:10:33;100379.25;;;8.26;100.00
62150;BME280;48134;53.586;10.610;2024-02-16T07:13:03;100382.78;;;8.31;100.00
62150;BME280;48134;53.586;10.610;2024-02-16T07:15:36;100386.59;;;8.30;100.00
62150;BME280;48134;53.586;10.610;2024-02-16T07:18:09;100387.38;;;8.36;100.00
62150;BME280;48134;53.586;10.610;2024-02-16T07:20:43;100376.81;;;8.40;100.00
62150;BME280;48134;53.586;10.610;2024-02-16T07:23:16;100380.59;;;8.33;100.00
62150;BME280;48134;53.586;10.610;2024-02-16T07:25:49;100378.47;;;8.36;100.00
62150;BME280;48134;53.586;10.610;2024-02-16T07:28:24;100376.00;;;8.44;100.00
62150;BME280;48134;53.586;10.610;2024-02-16T07:30:53;100376.00;;;8.44;100.00
62150;BME280;48134;53.586;10.610;2024-02-16T07:33:26;100386.59;;;8.46;100.00
62150;BME280;48134;53.586;10.610;2024-02-16T07:36:00;100377.91;;;8.44;100.00
62150;BME280;48134;53.586;10.610;2024-02-16T07:38:33;100388.19;;;8.42;100.00
62150;BME280;48134;53.586;10.610;2024-02-16T07:41:06;100387.97;;;8.48;100.00
62150;BME280;48134;53.586;10.610;2024-02-16T07:43:40;100388.75;;;8.49;100.00
62150;BME280;48134;53.586;10.610;2024-02-16T07:46:14;100392.53;;;8.43;100.00
62150;BME280;48134;53.586;10.610;2024-02-16T07:48:45;100386.31;;;8.47;100.00
62150;BME280;48134;53.586;10.610;2024-02-16T07:51:14;100386.31;;;8.53;100.00
62150;BME280;48134;53.586;10.610;2024-02-16T07:53:42;100392.53;;;8.43;100.00
62150;BME280;48134;53.586;10.610;2024-02-16T07:56:14;100388.22;;;8.47;100.00
62150;BME280;48134;53.586;10.610;2024-02-16T07:58:44;100392.53;;;8.38;100.00
62150;BME280;48134;53.586;10.610;2024-02-16T08:01:17;100387.94;;;8.33;100.00
62150;BME280;48134;53.586;10.610;2024-02-16T08:03:54;100396.88;;;8.39;100.00
62150;BME280;48134;53.586;10.610;2024-02-16T08:06:27;100381.19;;;8.51;100.00
62150;BME280;48134;53.586;10.610;2024-02-16T08:09:00;100386.03;;;8.54;100.00
62150;BME280;48134;53.586;10.610;2024-02-16T08:11:34;100385.47;;;8.73;100.00
62150;BME280;48134;53.586;10.610;2024-02-16T08:14:08;100389.81;;;8.84;100.00
62150;BME280;48134;53.586;10.610;2024-02-16T08:16:41;100384.59;;;8.93;100.00
62150;BME280;48134;53.586;10.610;2024-02-16T08:19:10;100382.16;;;8.96;100.00
62150;BME280;48134;53.586;10.610;2024-02-16T08:21:45;100383.19;;;9.06;100.00
62150;BME280;48134;53.586;10.610;2024-02-16T08:24:18;100385.34;;;9.14;100.00
62150;BME280;48134;53.586;10.610;2024-02-16T08:26:52;100386.72;;;9.11;100.00
62150;BME280;48134;53.586;10.610;2024-02-16T08:29:26;100383.47;;;9.14;100.00
62150;BME280;48134;53.586;10.610;2024-02-16T08:32:00;100383.69;;;9.23;100.00
62150;BME280;48134;53.586;10.610;2024-02-16T08:34:35;100380.69;;;9.30;100.00
62150;BME280;48134;53.586;10.610;2024-02-16T08:37:04;100378.53;;;9.27;100.00
62150;BME280;48134;53.586;10.610;2024-02-16T08:39:39;100381.47;;;9.30;100.00
62150;BME280;48134;53.586;10.610;2024-02-16T08:42:08;100379.03;;;9.34;100.00
62150;BME280;48134;53.586;10.610;2024-02-16T08:44:44;100369.81;;;9.30;100.00
62150;BME280;48134;53.586;10.610;2024-02-16T08:47:18;100368.69;;;9.36;100.00
62150;BME280;48134;53.586;10.610;2024-02-16T08:49:52;100362.44;;;9.41;100.00
62150;BME280;48134;53.586;10.610;2024-02-16T08:52:20;100359.09;;;9.54;100.00
62150;BME280;48134;53.586;10.610;2024-02-16T08:54:49;100357.69;;;9.62;100.00
62150;BME280;48134;53.586;10.610;2024-02-16T08:57:22;100361.47;;;9.66;100.00
62150;BME280;48134;53.586;10.610;2024-02-16T08:59:52;100348.84;;;9.80;100.00
62150;BME280;48134;53.586;10.610;2024-02-16T09:02:20;100348.84;;;9.85;100.00
62150;BME280;48134;53.586;10.610;2024-02-16T09:04:54;100352.63;;;9.84;100.00
62150;BME280;48134;53.586;10.610;2024-02-16T09:07:27;100350.00;;;9.74;100.00
62150;BME280;48134;53.586;10.610;2024-02-16T09:10:01;100357.34;;;9.74;100.00
62150;BME280;48134;53.586;10.610;2024-02-16T09:12:29;100360.88;;;9.74;100.00
62150;BME280;48134;53.586;10.610;2024-02-16T09:14:59;100358.34;;;9.83;100.00
62150;BME280;48134;53.586;10.610;2024-02-16T09:17:27;100358.84;;;9.90;100.00
62150;BME280;48134;53.586;10.610;2024-02-16T09:20:00;100355.88;;;9.92;100.00
62150;BME280;48134;53.586;10.610;2024-02-16T09:22:36;100358.53;;;9.97;100.00
62150;BME280;48134;53.586;10.610;2024-02-16T09:25:09;100346.28;;;9.99;100.00
62150;BME280;48134;53.586;10.610;2024-02-16T09:27:42;100356.38;;;9.94;100.00
62150;BME280;48134;53.586;10.610;2024-02-16T09:30:18;100361.22;;;10.02;100.00
62150;BME280;48134;53.586;10.610;2024-02-16T09:32:48;100358.00;;;9.95;100.00
62150;BME280;48134;53.586;10.610;2024-02-16T09:35:16;100364.50;;;9.99;100.00
62150;BME280;48134;53.586;10.610;2024-02-16T09:37:50;100365.72;;;10.17;100.00
62150;BME280;48134;53.586;10.610;2024-02-16T09:40:18;100363.47;;;10.24;100.00
62150;BME280;48134;53.586;10.610;2024-02-16T09:42:52;100367.53;;;10.27;100.00
62150;BME280;48134;53.586;10.610;2024-02-16T09:45:27;100367.25;;;10.28;100.00
62150;BME280;48134;53.586;10.610;2024-02-16T09:47:57;100358.22;;;10.38;100.00
62150;BME280;48134;53.586;10.610;2024-02-16T09:50:31;100365.88;;;10.36;100.00
62150;BME280;48134;53.586;10.610;2024-02-16T09:52:59;100361.41;;;10.45;100.00
62150;BME280;48134;53.586;10.610;2024-02-16T09:55:36;100353.44;;;10.54;100.00
62150;BME280;48134;53.586;10.610;2024-02-16T09:58:05;100367.53;;;10.61;100.00
62150;BME280;48134;53.586;10.610;2024-02-16T10:00:39;100368.00;;;10.68;100.00
62150;BME280;48134;53.586;10.610;2024-02-16T10:03:07;100365.97;;;10.55;100.00
62150;BME280;48134;53.586;10.610;2024-02-16T10:05:42;100368.28;;;10.67;100.00
62150;BME280;48134;53.586;10.610;2024-02-16T10:08:11;100374.25;;;10.69;100.00
62150;BME280;48134;53.586;10.610;2024-02-16T10:10:40;100368.56;;;10.89;100.00
62150;BME280;48134;53.586;10.610;2024-02-16T10:13:26;100370.75;;;10.93;100.00
62150;BME280;48134;53.586;10.610;2024-02-16T10:16:08;100379.06;;;11.01;100.00
62150;BME280;48134;53.586;10.610;2024-02-16T10:18:43;100380.84;;;11.11;100.00
62150;BME280;48134;53.586;10.610;2024-02-16T10:21:24;100375.19;;;11.08;100.00
62150;BME280;48134;53.586;10.610;2024-02-16T10:24:00;100379.75;;;11.12;100.00
62150;BME280;48134;53.586;10.610;2024-02-16T10:26:35;100376.44;;;11.15;100.00
62150;BME280;48134;53.586;10.610;2024-02-16T10:29:10;100376.34;;;11.26;100.00
62150;BME280;48134;53.586;10.610;2024-02-16T10:31:40;100371.44;;;11.22;100.00
62150;BME280;48134;53.586;10.610;2024-02-16T10:34:10;100376.03;;;11.27;100.00
62150;BME280;48134;53.586;10.610;2024-02-16T10:36:43;100376.84;;;11.28;100.00
62150;BME280;48134;53.586;10.610;2024-02-16T10:39:12;100379.00;;;11.50;100.00
62150;BME280;48134;53.586;10.610;2024-02-16T10:41:41;100368.03;;;11.55;100.00
62150;BME280;48134;53.586;10.610;2024-02-16T10:44:14;100369.22;;;11.68;100.00
62150;BME280;48134;53.586;10.610;2024-02-16T10:46:49;100373.22;;;11.76;100.00
62150;BME280;48134;53.586;10.610;2024-02-16T10:49:18;100367.00;;;11.89;100.00
62150;BME280;48134;53.586;10.610;2024-02-16T10:51:49;100372.25;;;11.85;100.00
62150;BME280;48134;53.586;10.610;2024-02-16T10:54:29;100365.53;;;11.97;100.00
62150;BME280;48134;53.586;10.610;2024-02-16T10:57:07;100378.28;;;12.01;100.00
62150;BME280;48134;53.586;10.610;2024-02-16T10:59:41;100376.38;;;12.02;100.00
62150;BME280;48134;53.586;10.610;2024-02-16T11:02:17;100377.34;;;12.11;100.00
62150;BME280;48134;53.586;10.610;2024-02-16T11:04:51;100378.38;;;12.15;100.00
62150;BME280;48134;53.586;10.610;2024-02-16T11:07:38;100370.38;;;12.19;100.00
62150;BME280;48134;53.586;10.610;2024-02-16T11:10:12;100372.03;;;12.34;100.00
62150;BME280;48134;53.586;10.610;2024-02-16T11:12:44;100368.72;;;12.37;100.00
62150;BME280;48134;53.586;10.610;2024-02-16T11:15:27;100374.84;;;12.29;100.00
62150;BME280;48134;53.586;10.610;2024-02-16T11:18:03;100373.63;;;12.21;100.00
62150;BME280;48134;53.586;10.610;2024-02-16T11:20:37;100376.13;;;12.17;100.00
62150;BME280;48134;53.586;10.610;2024-02-16T11:23:08;100379.16;;;12.16;100.00
62150;BME280;48134;53.586;10.610;2024-02-16T11:25:37;100381.66;;;11.93;100.00
62150;BME280;48134;53.586;10.610;2024-02-16T11:28:05;100381.16;;;11.91;100.00
62150;BME280;48134;53.586;10.610;2024-02-16T11:30:33;100379.22;;;11.91;100.00
62150;BME280;48134;53.586;10.610;2024-02-16T11:33:11;100375.97;;;11.95;100.00
62150;BME280;48134;53.586;10.610;2024-02-16T11:35:52;100369.06;;;12.16;100.00
62150;BME280;48134;53.586;10.610;2024-02-16T11:38:25;100359.75;;;12.17;100.00
62150;BME280;48134;53.586;10.610;2024-02-16T11:40:56;100365.88;;;12.28;100.00
62150;BME280;48134;53.586;10.610;2024-02-16T11:43:30;100367.72;;;12.47;100.00
62150;BME280;48134;53.586;10.610;2024-02-16T11:46:11;100366.84;;;12.51;100.00
62150;BME280;48134;53.586;10.610;2024-02-16T11:48:41;100353.06;;;12.56;100.00
62150;BME280;48134;53.586;10.610;2024-02-16T11:51:09;100348.06;;;12.64;100.00
62150;BME280;48134;53.586;10.610;2024-02-16T11:53:37;100338.94;;;12.68;100.00
62150;BME280;48134;53.586;10.610;2024-02-16T11:56:06;100341.59;;;12.87;100.00
62150;BME280;48134;53.586;10.610;2024-02-16T11:58:39;100349.47;;;12.75;100.00
62150;BME280;48134;53.586;10.610;2024-02-16T12:01:10;100336.91;;;12.74;100.00
62150;BME280;48134;53.586;10.610;2024-02-16T12:03:42;100347.44;;;12.81;100.00
62150;BME280;48134;53.586;10.610;2024-02-16T12:06:19;100344.09;;;12.98;100.00
62150;BME280;48134;53.586;10.610;2024-02-16T12:08:49;100350.19;;;12.95;100.00
62150;BME280;48134;53.586;10.610;2024-02-16T12:11:19;100349.47;;;13.03;100.00
62150;BME280;48134;53.586;10.610;2024-02-16T12:13:52;100348.66;;;13.02;100.00
62150;BME280;48134;53.586;10.610;2024-02-16T12:16:25;100359.38;;;13.13;100.00
62150;BME280;48134;53.586;10.610;2024-02-16T12:19:04;100354.53;;;13.09;100.00
62150;BME280;48134;53.586;10.610;2024-02-16T12:21:38;100352.09;;;13.08;100.00
62150;BME280;48134;53.586;10.610;2024-02-16T12:24:12;100346.22;;;13.15;100.00
62150;BME280;48134;53.586;10.610;2024-02-16T12:26:45;100353.41;;;13.24;100.00
62150;BME280;48134;53.586;10.610;2024-02-16T12:29:13;100352.97;;;13.31;100.00
62150;BME280;48134;53.586;10.610;2024-02-16T12:31:48;100358.56;;;13.40;100.00
62150;BME280;48134;53.586;10.610;2024-02-16T12:34:22;100355.91;;;13.35;100.00
62150;BME280;48134;53.586;10.610;2024-02-16T12:36:52;100360.06;;;13.46;100.00
62150;BME280;48134;53.586;10.610;2024-02-16T12:39:25;100358.56;;;13.40;100.00
62150;BME280;48134;53.586;10.610;2024-02-16T12:41:59;100359.97;;;13.37;100.00
62150;BME280;48134;53.586;10.610;2024-02-16T12:44:32;100360.47;;;13.39;100.00
62150;BME280;48134;53.586;10.610;2024-02-16T12:47:05;100355.63;;;13.36;100.00
62150;BME280;48134;53.586;10.610;2024-02-16T12:49:40;100352.16;;;13.44;100.00
62150;BME280;48134;53.586;10.610;2024-02-16T12:52:08;100341.44;;;13.34;100.00
62150;BME280;48134;53.586;10.610;2024-02-16T12:54:42;100358.16;;;13.33;100.00
62150;BME280;48134;53.586;10.610;2024-02-16T12:57:15;100360.88;;;13.47;100.00
62150;BME280;48134;53.586;10.610;2024-02-16T12:59:48;100357.94;;;13.43;100.00
62150;BME280;48134;53.586;10.610;2024-02-16T13:02:22;100356.72;;;13.49;100.00
62150;BME280;48134;53.586;10.610;2024-02-16T13:04:51;100355.91;;;13.49;100.00